• Join FlightAware (Why Join?)
  • Login
  • US Flag 
03:05PM EDT


 

Airport Tracker/Info


-or-


 

Live Flight TrackerFlight Track Log ✈ SWA3247 ✈ 20-Jun-2013 ✈ KLAS - KALB

Flight Track Log - Related Links

Times and Time Zones

All times are in EDT time to prevent confusion due to time zone crossing. See the SWA3247 flight status page for this flight to view local times or setup timezone preferences in your user account.

Time Position Orientation Groundspeed Altitude Reporting Facility
EDT Latitude Longitude Course Direction KTS MPH feet Rate Location/Type
09:29PM 36.0778 -115.1756 271° West 155 178 3,500  Level Los Angeles Center
09:31PM 36.0783 -115.2581 271° West 228 262 5,800 2,340 Climbing Los Angeles Center
09:32PM 36.1550 -115.2839 345° North 255 293 9,600 2,220 Climbing Los Angeles Center
09:33PM 36.1881 -115.1956 65° Northeast 294 338 11,200 1,800 Climbing Los Angeles Center
09:34PM 36.1969 -115.0481 86° East 367 422 13,400 2,280 Climbing Los Angeles Center
09:35PM 36.1981 -114.9142 89° East 387 445 16,000 2,340 Climbing Los Angeles Center
09:36PM 36.1997 -114.7739 89° East 406 467 18,300 2,220 Climbing Los Angeles Center
09:37PM 36.1969 -114.6269 91° East 425 489 20,700 2,280 Climbing Los Angeles Center
09:38PM 36.1950 -114.4786 91° East 432 497 23,100 2,040 Climbing Los Angeles Center
09:39PM 36.1939 -114.3275 90° East 438 504 25,000 1,740 Climbing Los Angeles Center
09:40PM 36.1997 -114.1703 87° East 455 524 26,700 1,680 Climbing Los Angeles Center
09:41PM 36.2242 -113.9781 81° East 470 541 28,500 1,500 Climbing Los Angeles Center
09:42PM 36.2439 -113.8125 82° East 484 557 29,900 1,500 Climbing Los Angeles Center
09:43PM 36.2717 -113.6481 78° East 488 562 31,700 1,740 Climbing Los Angeles Center
09:44PM 36.3472 -113.5086 56° Northeast 485 558 33,500 1,080 Climbing Los Angeles Center
09:45PM 36.4228 -113.3744 55° Northeast 478 550 34,000 240 Climbing Los Angeles Center
09:46PM 36.5094 -113.2203 55° Northeast 471 542 34,000  Level Los Angeles Center
09:47PM 36.5844 -113.0869 55° Northeast 472 543 34,000 600 Level Los Angeles Center
09:49PM 36.6514 -112.9489 59° Northeast 469 540 35,300 1,020 Climbing Los Angeles Center
09:50PM 36.6900 -112.8278 68° East 471 542 36,100 780 Climbing Los Angeles Center
09:51PM 36.7506 -112.6447 68° East 477 549 37,000 420 Climbing Los Angeles Center
09:52PM 36.8100 -112.4603 68° East 480 552 37,000  Level Los Angeles Center
09:53PM 36.8594 -112.3081 68° East 478 550 37,000  Level Los Angeles Center
09:54PM 36.9081 -112.1561 68° East 475 547 37,000  Level Los Angeles Center
09:55PM 36.9561 -112.0039 68° East 474 545 37,000  Level Los Angeles Center
09:56PM 37.0044 -111.8522 68° East 473 544 37,000  Level Los Angeles Center
09:57PM 37.0522 -111.7008 68° East 470 541 37,000  Level Los Angeles Center
09:58PM 37.1003 -111.5486 68° East 471 542 37,000  Level Los Angeles Center
09:58PM 37.1278 -111.4575 69° East 471 542 37,000  Level Denver Center
09:59PM 37.1850 -111.2725 69° East 475 547 37,000  Level Denver Center
10:00PM 37.2319 -111.1189 69° East 474 545 37,000  Level Denver Center
10:01PM 37.2797 -110.9650 69° East 474 545 37,000  Level Denver Center
10:03PM 37.3267 -110.8111 69° East 475 547 37,000  Level Denver Center
10:04PM 37.3731 -110.6569 69° East 474 545 37,000  Level Denver Center
10:05PM 37.4386 -110.4411 69° East 474 545 37,000  Level Denver Center
10:06PM 37.4853 -110.2814 70° East 472 543 37,000  Level Denver Center
10:07PM 37.5300 -110.1331 69° East 473 544 37,000  Level Denver Center
10:08PM 37.5742 -109.9833 70° East 475 547 37,000  Level Denver Center
10:09PM 37.6250 -109.8094 70° East 474 545 37,000  Level Denver Center
10:10PM 37.6692 -109.6608 69° East 472 543 37,000  Level Denver Center
10:11PM 37.7189 -109.4858 70° East 474 545 37,000  Level Denver Center
10:12PM 37.7619 -109.3358 70° East 473 544 37,000  Level Denver Center
10:13PM 37.8125 -109.1622 70° East 472 543 37,000  Level Denver Center
10:14PM 37.8547 -109.0133 70° East 469 540 37,000  Level Denver Center
10:15PM 37.9044 -108.8381 70° East 472 543 37,000  Level Denver Center
10:16PM 37.9469 -108.6869 70° East 474 545 37,000  Level Denver Center
10:17PM 37.9964 -108.5114 70° East 474 545 37,000  Level Denver Center
10:18PM 38.0389 -108.3589 70° East 477 549 37,000  Level Denver Center
10:19PM 38.0875 -108.1808 71° East 476 548 37,000  Level Denver Center
10:20PM 38.1300 -108.0292 70° East 477 549 37,000  Level Denver Center
10:21PM 38.1714 -107.8808 70° East 470 541 37,000  Level Denver Center
10:22PM 38.2256 -107.7078 68° East 471 542 37,000  Level Denver Center
10:23PM 38.2694 -107.5597 69° East 469 540 37,000  Level Denver Center
10:24PM 38.3214 -107.3853 69° East 473 544 37,000  Level Denver Center
10:25PM 38.3647 -107.2369 70° East 470 541 37,000  Level Denver Center
10:27PM 38.4139 -107.0703 69° East 471 542 37,000  Level Denver Center
10:28PM 38.4594 -106.9144 69° East 469 540 37,000  Level Denver Center
10:29PM 38.5042 -106.7564 70° East 475 547 37,000  Level Denver Center
10:30PM 38.5497 -106.5989 70° East 475 547 37,000  Level Denver Center
10:31PM 38.6047 -106.4086 70° East 480 552 37,000  Level Denver Center
10:32PM 38.6483 -106.2544 70° East 466 536 37,000  Level Denver Center
10:33PM 38.6947 -106.0878 70° East 469 540 37,000  Level Denver Center
10:34PM 38.7389 -105.9314 70° East 470 541 37,000  Level Denver Center
10:35PM 38.7839 -105.7731 70° East 473 544 37,000  Level Denver Center
10:36PM 38.8286 -105.6144 70° East 474 545 37,000  Level Denver Center
10:37PM 38.8800 -105.4236 71° East 475 547 37,000  Level Denver Center
10:38PM 38.9236 -105.2628 71° East 478 550 37,000  Level Denver Center
10:39PM 38.9675 -105.1036 70° East 476 548 37,000  Level Denver Center
10:40PM 39.0106 -104.9428 71° East 478 550 37,000  Level Denver Center
10:41PM 39.0536 -104.7839 71° East 477 549 37,000  Level Denver Center
10:42PM 39.1050 -104.5936 71° East 474 545 37,000  Level Denver Center
10:43PM 39.1467 -104.4350 71° East 474 545 37,000  Level Denver Center
10:44PM 39.1881 -104.2775 71° East 469 540 37,000  Level Denver Center
10:45PM 39.2297 -104.1186 71° East 471 542 37,000  Level Denver Center
10:46PM 39.2706 -103.9622 71° East 466 536 37,000  Level Denver Center
10:47PM 39.3194 -103.7725 72° East 467 537 37,000  Level Denver Center
10:48PM 39.3597 -103.6164 72° East 461 531 37,000  Level Denver Center
10:49PM 39.3997 -103.4611 72° East 459 528 37,000  Level Denver Center
10:50PM 39.4383 -103.3058 72° East 455 524 37,000  Level Denver Center
10:51PM 39.4778 -103.1522 72° East 452 520 37,000  Level Denver Center
10:52PM 39.5161 -102.9964 72° East 455 524 37,000  Level Denver Center
10:53PM 39.5625 -102.8092 72° East 458 527 37,000  Level Denver Center
10:54PM 39.6019 -102.6528 72° East 458 527 37,000  Level Denver Center
10:55PM 39.6386 -102.5017 72° East 460 529 37,000  Level Denver Center
10:56PM 39.6814 -102.3242 73° East 462 532 37,000  Level Denver Center
10:58PM 39.7183 -102.1728 72° East 460 529 37,000  Level Denver Center
10:59PM 39.7606 -101.9944 73° East 463 533 37,000  Level Denver Center
11:00PM 39.7911 -101.8675 73° East 463 533 37,000  Level Denver Center
11:01PM 39.8386 -101.6647 73° East 461 531 37,000  Level Denver Center
11:02PM 39.8744 -101.5136 73° East 459 528 37,000  Level Denver Center
11:03PM 39.9156 -101.3369 73° East 458 527 37,000  Level Denver Center
11:04PM 39.9506 -101.1864 73° East 455 524 37,000  Level Denver Center
11:05PM 39.9900 -101.0153 73° East 446 513 37,000  Level Denver Center
11:06PM 40.0181 -100.8922 73° East 446 513 37,000  Level Denver Center
11:07PM 40.0625 -100.6931 74° East 449 517 37,000  Level Denver Center
11:08PM 40.0967 -100.5425 73° East 452 520 37,000  Level Denver Center
11:09PM 40.1372 -100.3642 73° East 458 527 37,000  Level Denver Center
11:10PM 40.1700 -100.2111 74° East 459 528 37,000  Level Denver Center
11:11PM 40.1983 -100.0825 74° East 462 532 37,000  Level Denver Center
11:12PM 40.2433 -99.8761 74° East 466 536 37,000  Level Denver Center
11:13PM 40.2742 -99.7342 74° East 462 532 37,000  Level Denver Center
11:14PM 40.3167 -99.5389 74° East 466 536 37,000  Level Denver Center
11:15PM 40.3514 -99.3764 74° East 466 536 37,000  Level Denver Center
11:16PM 40.3861 -99.2111 75° East 471 542 37,000  Level Denver Center
11:17PM 40.4208 -99.0483 74° East 468 539 37,000  Level Denver Center
11:18PM 40.4544 -98.8853 75° East 465 535 37,000  Level Denver Center
11:19PM 40.4953 -98.6900 75° East 465 535 37,000  Level Denver Center
11:20PM 40.5272 -98.5278 75° East 463 533 37,000  Level Denver Center
11:22PM 40.5728 -98.3050 75° East 457 526 37,000  Level Minneapolis Center
11:23PM 40.6056 -98.1439 75° East 458 527 37,000  Level Minneapolis Center
11:24PM 40.6436 -97.9519 75° East 457 526 37,000  Level Minneapolis Center
11:25PM 40.6811 -97.7608 75° East 454 522 37,000  Level Minneapolis Center
11:26PM 40.7181 -97.5708 76° East 451 519 37,000  Level Minneapolis Center
11:27PM 40.7497 -97.4131 75° East 449 517 37,000  Level Minneapolis Center
11:28PM 40.7797 -97.2553 76° East 447 514 37,000  Level Minneapolis Center
11:29PM 40.8100 -97.0972 76° East 446 513 37,000  Level Minneapolis Center
11:30PM 40.8397 -96.9386 76° East 446 513 37,000  Level Minneapolis Center
11:31PM 40.8700 -96.7794 76° East 447 514 37,000  Level Minneapolis Center
11:32PM 40.8989 -96.6200 76° East 448 516 37,000  Level Minneapolis Center
11:33PM 40.9278 -96.4244 79° East 448 516 37,000  Level Minneapolis Center
11:34PM 40.9539 -96.2661 78° East 450 518 37,000  Level Minneapolis Center
11:35PM 40.9761 -96.1383 77° East 449 517 37,000  Level Minneapolis Center
11:36PM 41.0100 -95.9475 77° East 449 517 37,000  Level Minneapolis Center
11:37PM 41.0389 -95.7881 76° East 449 517 37,000  Level Minneapolis Center
11:39PM 41.0672 -95.6292 77° East 449 517 37,000  Level Minneapolis Center
11:40PM 41.1019 -95.4347 77° East 453 521 37,000  Level Minneapolis Center
11:41PM 41.1308 -95.2747 76° East 451 519 37,000  Level Minneapolis Center
11:42PM 41.1583 -95.1142 77° East 449 517 37,000  Level Minneapolis Center
11:43PM 41.1858 -94.9511 77° East 451 519 37,000  Level Minneapolis Center
11:44PM 41.2136 -94.7878 77° East 455 524 37,000  Level Minneapolis Center
11:45PM 41.2411 -94.6258 77° East 453 521 37,000  Level Minneapolis Center
11:46PM 41.2667 -94.4614 78° East 454 522 37,000  Level Minneapolis Center
11:47PM 41.2883 -94.3314 77° East 453 521 37,000  Level Minneapolis Center
11:48PM 41.3206 -94.1342 78° East 453 521 37,000  Level Minneapolis Center
11:49PM 41.3469 -93.9722 78° East 452 520 37,000  Level Minneapolis Center
11:50PM 41.3781 -93.7769 78° East 452 520 37,000  Level Minneapolis Center
11:51PM 41.4050 -93.6142 78° East 452 520 37,000  Level Minneapolis Center
11:52PM 41.4311 -93.4494 78° East 454 522 37,000  Level Minneapolis Center
11:53PM 41.4561 -93.2867 78° East 453 521 37,000  Level Minneapolis Center
11:54PM 41.4825 -93.1214 78° East 455 524 37,000  Level Minneapolis Center
11:55PM 41.5061 -92.9572 79° East 455 524 37,000  Level Minneapolis Center
11:56PM 41.5314 -92.7931 78° East 455 524 37,000  Level Minneapolis Center
11:57PM 41.5558 -92.6278 79° East 456 525 37,000  Level Minneapolis Center
11:57PM 41.5722 -92.5144 79° East 458 527 37,000  Level Chicago Center
11:58PM 41.5964 -92.3519 79° East 454 522 37,000  Level Chicago Center
11:59PM 41.6200 -92.1858 79° East 459 528 37,000  Level Chicago Center
12:01AM 41.6433 -92.0222 79° East 456 525 37,000  Level Chicago Center
12:02AM 41.6667 -91.8581 79° East 456 525 37,000  Level Chicago Center
12:03AM 41.6944 -91.6619 79° East 453 521 37,000  Level Chicago Center
12:04AM 41.7172 -91.4961 80° East 458 527 37,000  Level Chicago Center
12:05AM 41.7403 -91.3328 79° East 455 524 37,000  Level Chicago Center
12:06AM 41.7619 -91.1692 80° East 453 521 37,000  Level Chicago Center
12:07AM 41.7839 -91.0053 80° East 452 520 37,000  Level Chicago Center
12:08AM 41.8053 -90.8394 80° East 456 525 37,000  Level Chicago Center
12:09AM 41.8275 -90.6728 80° East 459 528 37,000  Level Chicago Center
12:10AM 41.8489 -90.5081 80° East 458 527 37,000  Level Chicago Center
12:11AM 41.8744 -90.3081 80° East 458 527 37,000  Level Chicago Center
12:12AM 41.8958 -90.1431 80° East 456 525 37,000  Level Chicago Center
12:13AM 41.9153 -89.9792 81° East 455 524 37,000  Level Chicago Center
12:14AM 41.9350 -89.8111 81° East 448 516 37,000  Level Chicago Center
12:15AM 41.9564 -89.6458 80° East 451 519 37,000  Level Chicago Center
12:16AM 41.9769 -89.4764 81° East 461 531 37,000  Level Chicago Center
12:17AM 41.9964 -89.3119 81° East 451 519 37,000  Level Chicago Center
12:18AM 42.0142 -89.1497 82° East 440 506 37,000  Level Chicago Center
12:19AM 42.0331 -88.9872 81° East 441 507 37,000  Level Chicago Center
12:20AM 42.0517 -88.8239 81° East 444 511 37,000  Level Chicago Center
12:21AM 42.0703 -88.6594 81° East 446 513 37,000  Level Chicago Center
12:22AM 42.0883 -88.4961 81° East 443 510 37,000  Level Chicago Center
12:23AM 42.1058 -88.3319 82° East 442 509 37,000  Level Chicago Center
12:24AM 42.1236 -88.1675 82° East 443 510 37,000  Level Chicago Center
12:25AM 42.1406 -88.0039 82° East 441 507 37,000  Level Chicago Center
12:26AM 42.1575 -87.8386 82° East 444 511 37,000  Level Chicago Center
12:27AM 42.1747 -87.6736 82° East 444 511 37,000  Level Chicago Center
12:28AM 42.1917 -87.5097 82° East 444 511 37,000  Level Chicago Center
12:29AM 42.2089 -87.3444 82° East 445 512 37,000  Level Chicago Center
12:30AM 42.2283 -87.1472 82° East 444 511 37,000  Level Chicago Center
12:31AM 42.2439 -86.9817 83° East 445 512 37,000  Level Chicago Center
12:32AM 42.2592 -86.8158 83° East 446 513 37,000  Level Chicago Center
12:33AM 42.2733 -86.6731 82° East 445 512 37,000 720 Level Chicago Center
12:34AM 42.2894 -86.5047 83° East 452 520 38,500 960 Climbing Chicago Center
12:35AM 42.3058 -86.3186 83° East 442 509 39,000 240 Climbing Chicago Center
12:36AM 42.3206 -86.1569 83° East 440 506 39,000  Level Chicago Center
12:37AM 42.3350 -85.9936 83° East 440 506 39,000  Level Chicago Center
12:38AM 42.3481 -85.8325 84° East 436 502 39,000  Level Chicago Center
12:39AM 42.3628 -85.6714 83° East 435 501 39,000  Level Chicago Center
12:40AM 42.3756 -85.5094 84° East 436 502 39,000  Level Chicago Center
12:41AM 42.3892 -85.3486 83° East 435 501 39,000  Level Chicago Center
12:42AM 42.4028 -85.1911 83° East 428 493 39,000  Level Chicago Center
12:43AM 42.4158 -85.0311 84° East 429 494 39,000  Level Chicago Center
12:44AM 42.4281 -84.8711 84° East 429 494 39,000  Level Chicago Center
12:45AM 42.4406 -84.7114 84° East 430 495 39,000  Level Chicago Center
12:46AM 42.4528 -84.5514 84° East 430 495 39,000  Level Chicago Center
12:47AM 42.4639 -84.3903 85° East 430 495 39,000  Level Chicago Center
12:48AM 42.4789 -84.1842 84° East 421 484 39,000  Level Cleveland Center
12:49AM 42.4881 -84.0242 86° East 421 484 39,000  Level Cleveland Center
12:50AM 42.5008 -83.8642 84° East 421 484 39,000  Level Cleveland Center
12:51AM 42.5089 -83.7322 85° East 421 484 39,000 -780 Level Cleveland Center
12:52AM 42.5239 -83.5556 83° East 421 484 37,500 -1,020 Descending Cleveland Center
12:53AM 42.5342 -83.3925 85° East 426 490 37,000 -300 Descending Cleveland Center
12:54AM 42.5425 -83.2267 86° East 431 496 37,000  Level Cleveland Center
12:55AM 42.5522 -83.0636 85° East 431 496 37,000  Level Cleveland Center
12:56AM 42.5619 -82.9003 85° East 436 502 37,000  Level Cleveland Center
12:57AM 42.5714 -82.7317 86° East 442 509 37,000  Level Cleveland Center
12:58AM 42.5806 -82.5656 86° East 442 509 37,000  Level Cleveland Center
12:59AM 42.5897 -82.3994 86° East 442 509 37,000  Level Cleveland Center
01:00AM 42.5983 -82.2331 86° East 442 509 37,000  Level Cleveland Center
01:01AM 42.6089 -82.0669 85° East 442 509 37,000  Level Cleveland Center
01:02AM 42.6172 -81.8981 86° East 442 509 37,000  Level Cleveland Center
01:03AM 42.6275 -81.7175 86° East 442 509 37,000  Level Cleveland Center
01:04AM 42.6353 -81.5511 86° East 442 509 37,000  Level Cleveland Center
01:05AM 42.6450 -81.3847 85° East 442 509 37,000  Level Cleveland Center
01:06AM 42.6522 -81.2211 87° East 442 509 37,000  Level Cleveland Center
01:07AM 42.6594 -81.0519 87° East 437 503 37,000  Level Cleveland Center
01:08AM 42.6661 -80.8853 87° East 442 509 37,000  Level Cleveland Center
01:09AM 42.6728 -80.7186 87° East 442 509 37,000  Level Cleveland Center
01:10AM 42.6792 -80.5492 87° East 442 509 37,000  Level Cleveland Center
01:11AM 42.6831 -80.3939 88° East 442 509 37,000  Level Cleveland Center
01:12AM 42.6931 -80.2272 85° East 442 509 37,000  Level Cleveland Center
01:13AM 42.6967 -80.0633 88° East 442 509 37,000  Level Cleveland Center
01:14AM 42.7061 -79.8797 86° East 442 509 37,000 -540 Level Cleveland Center
01:15AM 42.7133 -79.7100 87° East 442 509 36,000 -1,020 Descending Cleveland Center
01:16AM 42.7161 -79.5378 89° East 442 509 35,000 -960 Descending Cleveland Center
01:17AM 42.7247 -79.3650 86° East 448 516 34,100 -960 Descending Cleveland Center
01:18AM 42.7289 -79.1842 88° East 458 527 33,100 -960 Descending Cleveland Center
01:19AM 42.7308 -79.0061 89° East 464 534 32,200 -960 Descending Cleveland Center
01:20AM 42.7367 -78.8278 87° East 470 541 31,200 -1,080 Descending Cleveland Center
01:21AM 42.7422 -78.6494 88° East 470 541 30,100 -1,080 Descending Cleveland Center
01:22AM 42.7453 -78.4742 89° East 470 541 29,100 -600 Descending Cleveland Center
01:23AM 42.7481 -78.2958 89° East 470 541 29,000 -60 Descending Cleveland Center
01:24AM 42.7506 -78.1147 89° East 470 541 29,000  Level Cleveland Center
01:25AM 42.7531 -77.9367 89° East 470 541 29,000  Level Cleveland Center
01:26AM 42.7578 -77.7922 87° East 475 547 29,000  Level Cleveland Center
01:28AM 42.7614 -77.4411 89° East 490 564 29,000  Level Boston Center
01:29AM 42.7614 -77.2994 90° East 484 557 29,000  Level Boston Center
01:30AM 42.7644 -77.0789 89° East 479 551 29,000  Level Boston Center
01:31AM 42.7653 -76.9008 90° East 479 551 29,000  Level Boston Center
01:32AM 42.7678 -76.7228 89° East 479 551 29,000  Level Boston Center
01:33AM 42.7683 -76.5389 90° East 479 551 29,000  Level Boston Center
01:34AM 42.7683 -76.3633 90° East 479 551 29,000  Level Boston Center
01:35AM 42.7661 -76.1822 91° East 479 551 29,000  Level Boston Center
01:36AM 42.7675 -76.0097 89° East 474 545 29,000 -540 Level Boston Center
01:37AM 42.7500 -75.8278 97° East 474 545 28,000 -1,680 Descending Boston Center
01:38AM 42.7322 -75.6569 98° East 474 545 25,700 -2,340 Descending Boston Center
01:39AM 42.7178 -75.4922 97° East 455 524 23,400 -2,280 Descending Boston Center
01:40AM 42.7050 -75.3447 97° East 438 504 21,200 -2,220 Descending Boston Center
01:41AM 42.6903 -75.1914 97° East 425 489 19,000 -2,100 Descending Boston Center
01:42AM 42.6769 -75.0411 97° East 412 474 17,100 -2,100 Descending Boston Center
01:43AM 42.6636 -74.8939 97° East 400 460 14,900 -2,280 Descending Boston Center
01:44AM 42.6481 -74.7350 98° East 395 455 12,600 -1,980 Descending Boston Center
01:45AM 42.6364 -74.5964 96° East 376 433 11,000 -900 Descending Boston Center
01:46AM 42.6239 -74.4717 98° East 352 405 10,900 -840 Descending Boston Center
01:47AM 42.6114 -74.3583 98° East 308 354 9,400 -1,440 Descending Boston Center
01:48AM 42.5986 -74.2453 99° East 303 349 8,100 -1,500 Descending Boston Center
01:49AM 42.5900 -74.1322 96° East 298 343 6,500 -1,560 Descending Boston Center
01:50AM 42.6039 -74.0394 78° East 287 330 5,000 -1,620 Descending Boston Center
01:51AM 42.6219 -73.9356 77° East 281 323 3,300 -840 Descending Boston Center
01:52AM 42.6333 -73.8483 80° East 259 298 3,400 -600 Climbing Boston Center
01:53AM 42.6425 -73.7919 78° East 206 237 2,200 -1,020 Descending Boston Center
01:54AM 42.6964 -73.8044 350° North 135 155 1,100 -840 Descending Boston Center